sensor_id;sensor_type;location;lat;lon;timestamp;temperature;humidity
12557;DHT22;6344;49.932;8.308;2023-08-17T00:01:04;17.30;99.90
12557;DHT22;6344;49.932;8.308;2023-08-17T00:03:32;17.30;99.90
12557;DHT22;6344;49.932;8.308;2023-08-17T00:05:58;17.20;99.90
12557;DHT22;6344;49.932;8.308;2023-08-17T00:08:25;17.20;99.90
12557;DHT22;6344;49.932;8.308;2023-08-17T00:10:52;17.20;99.90
12557;DHT22;6344;49.932;8.308;2023-08-17T00:13:18;17.30;99.90
12557;DHT22;6344;49.932;8.308;2023-08-17T00:15:45;17.20;99.90
12557;DHT22;6344;49.932;8.308;2023-08-17T00:18:11;17.30;99.90
12557;DHT22;6344;49.932;8.308;2023-08-17T00:20:39;17.20;99.90
12557;DHT22;6344;49.932;8.308;2023-08-17T00:23:06;17.20;99.90
12557;DHT22;6344;49.932;8.308;2023-08-17T00:25:33;17.20;99.90
12557;DHT22;6344;49.932;8.308;2023-08-17T00:27:59;17.10;99.90
12557;DHT22;6344;49.932;8.308;2023-08-17T00:30:26;17.10;99.90
12557;DHT22;6344;49.932;8.308;2023-08-17T00:32:52;17.10;99.90
12557;DHT22;6344;49.932;8.308;2023-08-17T00:35:19;17.10;99.90
12557;DHT22;6344;49.932;8.308;2023-08-17T00:37:47;17.00;99.90
12557;DHT22;6344;49.932;8.308;2023-08-17T00:40:13;17.00;99.90
12557;DHT22;6344;49.932;8.308;2023-08-17T00:42:40;16.90;99.90
12557;DHT22;6344;49.932;8.308;2023-08-17T00:45:07;16.90;99.90
12557;DHT22;6344;49.932;8.308;2023-08-17T00:47:33;17.00;99.90
12557;DHT22;6344;49.932;8.308;2023-08-17T00:50:00;16.90;99.90
12557;DHT22;6344;49.932;8.308;2023-08-17T00:52:27;16.90;99.90
12557;DHT22;6344;49.932;8.308;2023-08-17T00:54:55;16.90;99.90
12557;DHT22;6344;49.932;8.308;2023-08-17T00:57:23;16.90;99.90
12557;DHT22;6344;49.932;8.308;2023-08-17T00:59:49;17.00;99.90
12557;DHT22;6344;49.932;8.308;2023-08-17T01:02:16;17.00;99.90
12557;DHT22;6344;49.932;8.308;2023-08-17T01:04:43;17.00;99.90
12557;DHT22;6344;49.932;8.308;2023-08-17T01:07:09;16.90;99.90
12557;DHT22;6344;49.932;8.308;2023-08-17T01:09:36;16.90;99.90
12557;DHT22;6344;49.932;8.308;2023-08-17T01:12:05;16.90;99.90
12557;DHT22;6344;49.932;8.308;2023-08-17T01:14:36;16.90;99.90
12557;DHT22;6344;49.932;8.308;2023-08-17T01:17:06;16.80;99.90
12557;DHT22;6344;49.932;8.308;2023-08-17T01:19:37;16.90;99.90
12557;DHT22;6344;49.932;8.308;2023-08-17T01:22:08;17.00;99.90
12557;DHT22;6344;49.932;8.308;2023-08-17T01:24:36;17.10;99.90
12557;DHT22;6344;49.932;8.308;2023-08-17T01:33:08;17.30;99.90
12557;DHT22;6344;49.932;8.308;2023-08-17T01:35:37;17.30;99.90
12557;DHT22;6344;49.932;8.308;2023-08-17T01:38:07;17.50;99.90
12557;DHT22;6344;49.932;8.308;2023-08-17T01:40:35;17.70;99.90
12557;DHT22;6344;49.932;8.308;2023-08-17T01:43:02;17.70;99.90
12557;DHT22;6344;49.932;8.308;2023-08-17T01:45:29;17.80;99.90
12557;DHT22;6344;49.932;8.308;2023-08-17T01:47:55;17.90;99.90
12557;DHT22;6344;49.932;8.308;2023-08-17T01:50:22;17.90;99.90
12557;DHT22;6344;49.932;8.308;2023-08-17T01:52:49;18.00;99.90
12557;DHT22;6344;49.932;8.308;2023-08-17T01:55:16;18.00;99.90
12557;DHT22;6344;49.932;8.308;2023-08-17T01:57:44;17.90;99.90
12557;DHT22;6344;49.932;8.308;2023-08-17T02:00:11;17.80;99.90
12557;DHT22;6344;49.932;8.308;2023-08-17T02:02:37;17.90;99.90
12557;DHT22;6344;49.932;8.308;2023-08-17T02:05:04;18.00;99.90
12557;DHT22;6344;49.932;8.308;2023-08-17T02:07:31;17.90;99.90
12557;DHT22;6344;49.932;8.308;2023-08-17T02:09:57;17.90;99.90
12557;DHT22;6344;49.932;8.308;2023-08-17T02:12:24;17.70;99.90
12557;DHT22;6344;49.932;8.308;2023-08-17T02:14:52;17.60;99.90
12557;DHT22;6344;49.932;8.308;2023-08-17T02:17:18;17.60;99.90
12557;DHT22;6344;49.932;8.308;2023-08-17T02:19:46;17.50;99.90
12557;DHT22;6344;49.932;8.308;2023-08-17T02:22:13;17.50;99.90
12557;DHT22;6344;49.932;8.308;2023-08-17T02:24:40;17.50;99.90
12557;DHT22;6344;49.932;8.308;2023-08-17T02:27:06;17.40;99.90
12557;DHT22;6344;49.932;8.308;2023-08-17T02:29:33;17.40;99.90
12557;DHT22;6344;49.932;8.308;2023-08-17T02:32:01;17.30;99.90
12557;DHT22;6344;49.932;8.308;2023-08-17T02:34:27;17.30;99.90
12557;DHT22;6344;49.932;8.308;2023-08-17T02:36:54;17.50;99.90
12557;DHT22;6344;49.932;8.308;2023-08-17T02:39:20;17.50;99.90
12557;DHT22;6344;49.932;8.308;2023-08-17T02:41:47;17.50;99.90
12557;DHT22;6344;49.932;8.308;2023-08-17T02:44:14;17.30;99.90
12557;DHT22;6344;49.932;8.308;2023-08-17T02:46:41;17.30;99.90
12557;DHT22;6344;49.932;8.308;2023-08-17T02:49:09;17.20;99.90
12557;DHT22;6344;49.932;8.308;2023-08-17T02:51:35;17.20;99.90
12557;DHT22;6344;49.932;8.308;2023-08-17T02:54:02;17.10;99.90
12557;DHT22;6344;49.932;8.308;2023-08-17T02:56:29;17.10;99.90
12557;DHT22;6344;49.932;8.308;2023-08-17T02:58:55;17.00;99.90
12557;DHT22;6344;49.932;8.308;2023-08-17T03:01:22;16.90;99.90
12557;DHT22;6344;49.932;8.308;2023-08-17T03:03:48;17.00;99.90
12557;DHT22;6344;49.932;8.308;2023-08-17T03:06:16;17.00;99.90
12557;DHT22;6344;49.932;8.308;2023-08-17T03:08:42;16.90;99.90
12557;DHT22;6344;49.932;8.308;2023-08-17T03:11:09;16.90;99.90
12557;DHT22;6344;49.932;8.308;2023-08-17T03:13:36;16.90;99.90
12557;DHT22;6344;49.932;8.308;2023-08-17T03:16:02;16.80;99.90
12557;DHT22;6344;49.932;8.308;2023-08-17T03:18:29;16.90;99.90
12557;DHT22;6344;49.932;8.308;2023-08-17T03:20:55;16.80;99.90
12557;DHT22;6344;49.932;8.308;2023-08-17T03:23:23;16.80;99.90
12557;DHT22;6344;49.932;8.308;2023-08-17T03:25:51;16.90;99.90
12557;DHT22;6344;49.932;8.308;2023-08-17T03:28:17;17.00;99.90
12557;DHT22;6344;49.932;8.308;2023-08-17T03:30:44;17.00;99.90
12557;DHT22;6344;49.932;8.308;2023-08-17T03:33:10;17.00;99.90
12557;DHT22;6344;49.932;8.308;2023-08-17T03:35:37;17.00;99.90
12557;DHT22;6344;49.932;8.308;2023-08-17T03:38:03;17.10;99.90
12557;DHT22;6344;49.932;8.308;2023-08-17T03:40:31;17.00;99.90
12557;DHT22;6344;49.932;8.308;2023-08-17T03:42:58;16.90;99.90
12557;DHT22;6344;49.932;8.308;2023-08-17T03:45:24;16.80;99.90
12557;DHT22;6344;49.932;8.308;2023-08-17T03:47:51;16.80;99.90
12557;DHT22;6344;49.932;8.308;2023-08-17T03:50:17;16.80;99.90
12557;DHT22;6344;49.932;8.308;2023-08-17T03:52:44;16.80;99.90
12557;DHT22;6344;49.932;8.308;2023-08-17T03:55:10;17.00;99.90
12557;DHT22;6344;49.932;8.308;2023-08-17T03:57:38;17.00;99.90
12557;DHT22;6344;49.932;8.308;2023-08-17T04:00:05;16.90;99.90
12557;DHT22;6344;49.932;8.308;2023-08-17T04:02:32;16.90;99.90
12557;DHT22;6344;49.932;8.308;2023-08-17T04:04:58;16.80;99.90
12557;DHT22;6344;49.932;8.308;2023-08-17T04:07:25;17.00;99.90
12557;DHT22;6344;49.932;8.308;2023-08-17T04:09:51;16.90;99.90
12557;DHT22;6344;49.932;8.308;2023-08-17T04:12:18;16.90;99.90
12557;DHT22;6344;49.932;8.308;2023-08-17T04:14:46;17.10;99.90
12557;DHT22;6344;49.932;8.308;2023-08-17T04:17:12;17.20;99.90
12557;DHT22;6344;49.932;8.308;2023-08-17T04:19:39;17.30;99.90
12557;DHT22;6344;49.932;8.308;2023-08-17T04:22:05;17.40;99.90
12557;DHT22;6344;49.932;8.308;2023-08-17T04:24:32;17.40;99.90
12557;DHT22;6344;49.932;8.308;2023-08-17T04:26:58;17.20;99.90
12557;DHT22;6344;49.932;8.308;2023-08-17T04:29:25;17.30;99.90
12557;DHT22;6344;49.932;8.308;2023-08-17T04:31:53;17.30;99.90
12557;DHT22;6344;49.932;8.308;2023-08-17T04:34:19;17.10;99.90
12557;DHT22;6344;49.932;8.308;2023-08-17T04:36:46;17.10;99.90
12557;DHT22;6344;49.932;8.308;2023-08-17T04:39:12;17.10;99.90
12557;DHT22;6344;49.932;8.308;2023-08-17T04:41:39;17.20;99.90
12557;DHT22;6344;49.932;8.308;2023-08-17T04:44:05;17.10;99.90
12557;DHT22;6344;49.932;8.308;2023-08-17T04:46:32;17.10;99.90
12557;DHT22;6344;49.932;8.308;2023-08-17T04:49:00;17.10;99.90
12557;DHT22;6344;49.932;8.308;2023-08-17T04:51:26;17.10;99.90
12557;DHT22;6344;49.932;8.308;2023-08-17T04:53:53;17.10;99.90
12557;DHT22;6344;49.932;8.308;2023-08-17T04:56:20;17.10;99.90
12557;DHT22;6344;49.932;8.308;2023-08-17T04:58:47;17.30;99.90
12557;DHT22;6344;49.932;8.308;2023-08-17T05:01:13;17.30;99.90
12557;DHT22;6344;49.932;8.308;2023-08-17T05:03:40;17.40;99.90
12557;DHT22;6344;49.932;8.308;2023-08-17T05:06:08;17.40;99.90
12557;DHT22;6344;49.932;8.308;2023-08-17T05:08:34;17.40;99.90
12557;DHT22;6344;49.932;8.308;2023-08-17T05:11:01;17.50;99.90
12557;DHT22;6344;49.932;8.308;2023-08-17T05:13:27;17.60;99.90
12557;DHT22;6344;49.932;8.308;2023-08-17T05:15:54;17.50;99.90
12557;DHT22;6344;49.932;8.308;2023-08-17T05:18:20;17.60;99.90
12557;DHT22;6344;49.932;8.308;2023-08-17T05:20:47;17.70;99.90
12557;DHT22;6344;49.932;8.308;2023-08-17T05:23:15;17.70;99.90
12557;DHT22;6344;49.932;8.308;2023-08-17T05:25:41;17.80;99.90
12557;DHT22;6344;49.932;8.308;2023-08-17T05:28:08;17.90;99.90
12557;DHT22;6344;49.932;8.308;2023-08-17T05:30:34;18.00;99.90
12557;DHT22;6344;49.932;8.308;2023-08-17T05:33:01;18.00;99.90
12557;DHT22;6344;49.932;8.308;2023-08-17T05:35:27;18.20;99.90
12557;DHT22;6344;49.932;8.308;2023-08-17T05:37:54;18.30;99.90
12557;DHT22;6344;49.932;8.308;2023-08-17T05:40:22;18.40;99.90
12557;DHT22;6344;49.932;8.308;2023-08-17T05:42:48;18.50;99.90
12557;DHT22;6344;49.932;8.308;2023-08-17T05:45:15;18.70;99.90
12557;DHT22;6344;49.932;8.308;2023-08-17T05:47:41;18.70;99.90
12557;DHT22;6344;49.932;8.308;2023-08-17T05:50:08;18.70;99.90
12557;DHT22;6344;49.932;8.308;2023-08-17T05:52:34;19.00;99.90
12557;DHT22;6344;49.932;8.308;2023-08-17T05:55:01;19.20;99.90
12557;DHT22;6344;49.932;8.308;2023-08-17T05:57:29;19.60;99.90
12557;DHT22;6344;49.932;8.308;2023-08-17T05:59:56;19.60;99.90
12557;DHT22;6344;49.932;8.308;2023-08-17T06:02:22;19.70;99.90
12557;DHT22;6344;49.932;8.308;2023-08-17T06:04:49;19.60;99.90
12557;DHT22;6344;49.932;8.308;2023-08-17T06:07:15;19.70;99.90
12557;DHT22;6344;49.932;8.308;2023-08-17T06:09:42;19.60;99.90
12557;DHT22;6344;49.932;8.308;2023-08-17T06:12:08;19.70;99.90
12557;DHT22;6344;49.932;8.308;2023-08-17T06:14:36;19.70;99.90
12557;DHT22;6344;49.932;8.308;2023-08-17T06:17:03;19.70;99.90
12557;DHT22;6344;49.932;8.308;2023-08-17T06:19:29;19.90;99.90
12557;DHT22;6344;49.932;8.308;2023-08-17T06:21:56;19.80;99.90
12557;DHT22;6344;49.932;8.308;2023-08-17T06:24:22;20.00;99.90
12557;DHT22;6344;49.932;8.308;2023-08-17T06:26:49;19.90;99.90
12557;DHT22;6344;49.932;8.308;2023-08-17T06:29:15;20.20;99.90
12557;DHT22;6344;49.932;8.308;2023-08-17T06:31:43;20.50;99.90
12557;DHT22;6344;49.932;8.308;2023-08-17T06:34:10;20.50;99.90
12557;DHT22;6344;49.932;8.308;2023-08-17T06:36:37;20.70;99.90
12557;DHT22;6344;49.932;8.308;2023-08-17T06:39:04;20.60;99.90
12557;DHT22;6344;49.932;8.308;2023-08-17T06:41:30;20.90;99.90
12557;DHT22;6344;49.932;8.308;2023-08-17T06:43:57;20.90;99.90
12557;DHT22;6344;49.932;8.308;2023-08-17T06:46:24;20.70;99.90
12557;DHT22;6344;49.932;8.308;2023-08-17T06:48:52;20.90;99.90
12557;DHT22;6344;49.932;8.308;2023-08-17T06:51:19;21.10;99.90
12557;DHT22;6344;49.932;8.308;2023-08-17T06:53:45;21.30;99.90
12557;DHT22;6344;49.932;8.308;2023-08-17T06:56:12;21.80;99.90
12557;DHT22;6344;49.932;8.308;2023-08-17T06:58:38;21.60;99.90
12557;DHT22;6344;49.932;8.308;2023-08-17T07:01:05;21.60;99.90
12557;DHT22;6344;49.932;8.308;2023-08-17T07:03:31;21.50;99.90
12557;DHT22;6344;49.932;8.308;2023-08-17T07:06:00;21.60;99.90
12557;DHT22;6344;49.932;8.308;2023-08-17T07:08:26;21.80;99.90
12557;DHT22;6344;49.932;8.308;2023-08-17T07:10:53;21.80;99.90
12557;DHT22;6344;49.932;8.308;2023-08-17T07:13:19;21.50;99.90
12557;DHT22;6344;49.932;8.308;2023-08-17T07:15:46;21.60;99.90
12557;DHT22;6344;49.932;8.308;2023-08-17T07:18:12;21.70;99.90
12557;DHT22;6344;49.932;8.308;2023-08-17T07:20:39;21.60;99.90
12557;DHT22;6344;49.932;8.308;2023-08-17T07:23:06;21.80;99.90
12557;DHT22;6344;49.932;8.308;2023-08-17T07:25:33;21.80;99.90
12557;DHT22;6344;49.932;8.308;2023-08-17T07:27:59;21.90;99.90
12557;DHT22;6344;49.932;8.308;2023-08-17T07:30:26;21.90;99.90
12557;DHT22;6344;49.932;8.308;2023-08-17T07:32:53;21.80;99.90
12557;DHT22;6344;49.932;8.308;2023-08-17T07:35:19;21.80;99.90
12557;DHT22;6344;49.932;8.308;2023-08-17T07:37:46;21.90;99.90
12557;DHT22;6344;49.932;8.308;2023-08-17T07:40:13;21.90;99.90
12557;DHT22;6344;49.932;8.308;2023-08-17T07:42:40;21.40;99.90
12557;DHT22;6344;49.932;8.308;2023-08-17T07:45:07;21.80;99.90
12557;DHT22;6344;49.932;8.308;2023-08-17T07:47:33;22.00;99.90
12557;DHT22;6344;49.932;8.308;2023-08-17T07:50:00;22.00;99.90
12557;DHT22;6344;49.932;8.308;2023-08-17T07:52:27;22.70;99.90
12557;DHT22;6344;49.932;8.308;2023-08-17T07:54:53;22.70;99.90
12557;DHT22;6344;49.932;8.308;2023-08-17T07:57:21;22.70;99.90
12557;DHT22;6344;49.932;8.308;2023-08-17T07:59:48;23.20;99.90
12557;DHT22;6344;49.932;8.308;2023-08-17T08:02:15;22.90;99.90
12557;DHT22;6344;49.932;8.308;2023-08-17T08:04:41;23.30;99.90
12557;DHT22;6344;49.932;8.308;2023-08-17T08:07:08;23.70;99.90
12557;DHT22;6344;49.932;8.308;2023-08-17T08:09:35;23.70;99.90
12557;DHT22;6344;49.932;8.308;2023-08-17T08:12:01;23.60;99.90
12557;DHT22;6344;49.932;8.308;2023-08-17T08:14:29;23.40;99.90
12557;DHT22;6344;49.932;8.308;2023-08-17T08:16:56;23.20;99.90
12557;DHT22;6344;49.932;8.308;2023-08-17T08:19:22;23.20;99.90
12557;DHT22;6344;49.932;8.308;2023-08-17T08:21:49;23.20;99.90
12557;DHT22;6344;49.932;8.308;2023-08-17T08:24:15;23.50;99.90
12557;DHT22;6344;49.932;8.308;2023-08-17T08:26:42;23.80;99.90
12557;DHT22;6344;49.932;8.308;2023-08-17T08:29:08;24.00;99.90
12557;DHT22;6344;49.932;8.308;2023-08-17T08:31:36;24.00;99.90
12557;DHT22;6344;49.932;8.308;2023-08-17T08:34:03;24.10;99.90
12557;DHT22;6344;49.932;8.308;2023-08-17T08:36:30;24.30;99.90
12557;DHT22;6344;49.932;8.308;2023-08-17T08:38:56;24.70;99.90
12557;DHT22;6344;49.932;8.308;2023-08-17T08:41:23;24.90;99.90
12557;DHT22;6344;49.932;8.308;2023-08-17T08:43:51;24.60;99.90
12557;DHT22;6344;49.932;8.308;2023-08-17T08:46:17;24.70;99.90
12557;DHT22;6344;49.932;8.308;2023-08-17T08:48:45;24.10;99.90
12557;DHT22;6344;49.932;8.308;2023-08-17T08:51:13;24.40;99.90
12557;DHT22;6344;49.932;8.308;2023-08-17T08:53:44;24.70;99.90
12557;DHT22;6344;49.932;8.308;2023-08-17T08:56:11;24.80;99.90
12557;DHT22;6344;49.932;8.308;2023-08-17T08:58:37;25.00;99.90
12557;DHT22;6344;49.932;8.308;2023-08-17T09:01:04;25.00;99.90
12557;DHT22;6344;49.932;8.308;2023-08-17T09:03:34;24.70;99.90
12557;DHT22;6344;49.932;8.308;2023-08-17T09:06:02;25.10;99.90
12557;DHT22;6344;49.932;8.308;2023-08-17T09:08:30;25.40;99.90
12557;DHT22;6344;49.932;8.308;2023-08-17T09:10:57;26.10;99.90
12557;DHT22;6344;49.932;8.308;2023-08-17T09:13:23;25.70;99.90
12557;DHT22;6344;49.932;8.308;2023-08-17T09:15:50;26.00;99.90
12557;DHT22;6344;49.932;8.308;2023-08-17T09:18:17;25.80;99.90
12557;DHT22;6344;49.932;8.308;2023-08-17T09:20:45;25.30;99.90
12557;DHT22;6344;49.932;8.308;2023-08-17T09:23:13;25.10;99.90
12557;DHT22;6344;49.932;8.308;2023-08-17T09:25:40;25.70;99.90
12557;DHT22;6344;49.932;8.308;2023-08-17T09:28:08;25.80;99.90
12557;DHT22;6344;49.932;8.308;2023-08-17T09:30:48;25.90;99.90
12557;DHT22;6344;49.932;8.308;2023-08-17T09:33:15;26.40;99.90
12557;DHT22;6344;49.932;8.308;2023-08-17T09:35:41;26.60;99.90
12557;DHT22;6344;49.932;8.308;2023-08-17T09:38:08;26.70;99.90
12557;DHT22;6344;49.932;8.308;2023-08-17T09:40:36;26.70;99.90
12557;DHT22;6344;49.932;8.308;2023-08-17T09:43:02;27.60;99.90
12557;DHT22;6344;49.932;8.308;2023-08-17T09:45:29;28.00;99.90
12557;DHT22;6344;49.932;8.308;2023-08-17T09:47:58;28.60;99.90
12557;DHT22;6344;49.932;8.308;2023-08-17T09:50:24;28.90;99.90
12557;DHT22;6344;49.932;8.308;2023-08-17T09:52:52;28.80;99.90
12557;DHT22;6344;49.932;8.308;2023-08-17T09:55:19;27.20;99.90
12557;DHT22;6344;49.932;8.308;2023-08-17T09:57:48;28.60;99.90
12557;DHT22;6344;49.932;8.308;2023-08-17T10:00:15;29.90;99.90
12557;DHT22;6344;49.932;8.308;2023-08-17T10:02:41;30.20;99.90
12557;DHT22;6344;49.932;8.308;2023-08-17T10:05:09;29.40;99.90
12557;DHT22;6344;49.932;8.308;2023-08-17T10:07:38;29.70;99.90
12557;DHT22;6344;49.932;8.308;2023-08-17T10:10:05;29.80;99.90
12557;DHT22;6344;49.932;8.308;2023-08-17T10:12:33;29.80;99.90
12557;DHT22;6344;49.932;8.308;2023-08-17T10:15:03;31.20;99.90
12557;DHT22;6344;49.932;8.308;2023-08-17T10:17:35;31.00;99.90
12557;DHT22;6344;49.932;8.308;2023-08-17T10:20:04;30.70;99.90
12557;DHT22;6344;49.932;8.308;2023-08-17T10:22:33;30.50;99.90
12557;DHT22;6344;49.932;8.308;2023-08-17T10:25:01;30.70;99.90
12557;DHT22;6344;49.932;8.308;2023-08-17T10:27:28;30.70;99.90
12557;DHT22;6344;49.932;8.308;2023-08-17T10:29:55;30.60;99.90
12557;DHT22;6344;49.932;8.308;2023-08-17T10:32:23;31.20;99.90
12557;DHT22;6344;49.932;8.308;2023-08-17T10:34:50;31.80;99.90
12557;DHT22;6344;49.932;8.308;2023-08-17T10:37:17;32.10;99.90
12557;DHT22;6344;49.932;8.308;2023-08-17T10:39:47;32.40;99.90
12557;DHT22;6344;49.932;8.308;2023-08-17T10:42:14;32.60;99.90
12557;DHT22;6344;49.932;8.308;2023-08-17T10:44:43;32.10;99.90
12557;DHT22;6344;49.932;8.308;2023-08-17T10:47:19;31.90;99.90
12557;DHT22;6344;49.932;8.308;2023-08-17T10:49:48;32.70;99.90
12557;DHT22;6344;49.932;8.308;2023-08-17T10:52:15;32.50;99.90
12557;DHT22;6344;49.932;8.308;2023-08-17T10:54:50;31.90;99.90
12557;DHT22;6344;49.932;8.308;2023-08-17T10:57:29;32.30;99.90
12557;DHT22;6344;49.932;8.308;2023-08-17T11:02:46;32.40;99.90
12557;DHT22;6344;49.932;8.308;2023-08-17T11:08:00;33.50;99.90
12557;DHT22;6344;49.932;8.308;2023-08-17T11:10:27;33.30;99.90
12557;DHT22;6344;49.932;8.308;2023-08-17T11:12:54;33.80;99.90
12557;DHT22;6344;49.932;8.308;2023-08-17T11:15:24;33.60;99.90
12557;DHT22;6344;49.932;8.308;2023-08-17T11:17:51;34.00;99.90
12557;DHT22;6344;49.932;8.308;2023-08-17T11:20:18;33.90;99.90
12557;DHT22;6344;49.932;8.308;2023-08-17T11:22:45;33.40;99.90
12557;DHT22;6344;49.932;8.308;2023-08-17T11:25:13;32.60;99.90
12557;DHT22;6344;49.932;8.308;2023-08-17T11:27:41;32.50;99.90
12557;DHT22;6344;49.932;8.308;2023-08-17T11:30:08;32.50;99.90
12557;DHT22;6344;49.932;8.308;2023-08-17T11:32:34;32.80;99.90
12557;DHT22;6344;49.932;8.308;2023-08-17T11:35:01;33.10;99.90
12557;DHT22;6344;49.932;8.308;2023-08-17T11:37:27;33.20;99.90
12557;DHT22;6344;49.932;8.308;2023-08-17T11:39:54;33.30;99.90
12557;DHT22;6344;49.932;8.308;2023-08-17T11:42:22;33.30;99.90
12557;DHT22;6344;49.932;8.308;2023-08-17T11:44:48;32.20;99.90
12557;DHT22;6344;49.932;8.308;2023-08-17T11:47:15;32.60;99.90
12557;DHT22;6344;49.932;8.308;2023-08-17T11:49:41;33.10;99.90
12557;DHT22;6344;49.932;8.308;2023-08-17T11:52:08;33.70;99.90
12557;DHT22;6344;49.932;8.308;2023-08-17T11:54:39;33.50;99.90
12557;DHT22;6344;49.932;8.308;2023-08-17T11:57:06;33.30;99.90
12557;DHT22;6344;49.932;8.308;2023-08-17T11:59:33;33.80;99.90
12557;DHT22;6344;49.932;8.308;2023-08-17T12:02:01;33.30;99.90
12557;DHT22;6344;49.932;8.308;2023-08-17T12:04:28;34.40;99.90
12557;DHT22;6344;49.932;8.308;2023-08-17T12:06:54;34.60;99.90
12557;DHT22;6344;49.932;8.308;2023-08-17T12:09:21;34.60;99.90
12557;DHT22;6344;49.932;8.308;2023-08-17T12:11:52;33.90;99.90
12557;DHT22;6344;49.932;8.308;2023-08-17T12:14:20;33.20;99.90
12557;DHT22;6344;49.932;8.308;2023-08-17T12:16:48;33.10;99.90
12557;DHT22;6344;49.932;8.308;2023-08-17T12:19:14;34.00;99.90
12557;DHT22;6344;49.932;8.308;2023-08-17T12:21:41;33.80;99.90
12557;DHT22;6344;49.932;8.308;2023-08-17T12:24:08;33.60;99.90
12557;DHT22;6344;49.932;8.308;2023-08-17T12:26:35;33.80;99.90
12557;DHT22;6344;49.932;8.308;2023-08-17T12:29:04;34.50;99.90
12557;DHT22;6344;49.932;8.308;2023-08-17T12:31:31;34.90;99.90
12557;DHT22;6344;49.932;8.308;2023-08-17T12:33:59;35.30;99.90
12557;DHT22;6344;49.932;8.308;2023-08-17T12:36:25;35.80;99.90
12557;DHT22;6344;49.932;8.308;2023-08-17T12:38:52;36.30;71.20
12557;DHT22;6344;49.932;8.308;2023-08-17T12:41:18;36.90;99.90
12557;DHT22;6344;49.932;8.308;2023-08-17T12:43:45;36.10;99.90
12557;DHT22;6344;49.932;8.308;2023-08-17T12:46:11;35.50;99.90
12557;DHT22;6344;49.932;8.308;2023-08-17T12:48:38;35.60;99.90
12557;DHT22;6344;49.932;8.308;2023-08-17T12:51:06;35.80;99.90
12557;DHT22;6344;49.932;8.308;2023-08-17T12:53:32;35.20;99.90
12557;DHT22;6344;49.932;8.308;2023-08-17T12:55:59;34.40;99.90
12557;DHT22;6344;49.932;8.308;2023-08-17T12:58:25;33.40;99.90
12557;DHT22;6344;49.932;8.308;2023-08-17T13:00:52;33.10;99.90
12557;DHT22;6344;49.932;8.308;2023-08-17T13:03:20;32.60;99.90
12557;DHT22;6344;49.932;8.308;2023-08-17T13:05:46;32.00;99.90
12557;DHT22;6344;49.932;8.308;2023-08-17T13:08:14;31.60;99.90
12557;DHT22;6344;49.932;8.308;2023-08-17T13:10:40;31.20;99.90
12557;DHT22;6344;49.932;8.308;2023-08-17T13:13:07;31.20;99.90
12557;DHT22;6344;49.932;8.308;2023-08-17T13:15:34;31.10;99.90
12557;DHT22;6344;49.932;8.308;2023-08-17T13:18:00;31.30;99.90
12557;DHT22;6344;49.932;8.308;2023-08-17T13:20:27;31.30;99.90
12557;DHT22;6344;49.932;8.308;2023-08-17T13:22:54;31.30;99.90
12557;DHT22;6344;49.932;8.308;2023-08-17T13:25:22;31.00;99.90
12557;DHT22;6344;49.932;8.308;2023-08-17T13:27:48;30.30;99.90
12557;DHT22;6344;49.932;8.308;2023-08-17T13:30:15;30.70;99.90
12557;DHT22;6344;49.932;8.308;2023-08-17T13:32:41;30.20;99.90
12557;DHT22;6344;49.932;8.308;2023-08-17T13:35:08;30.20;99.90
12557;DHT22;6344;49.932;8.308;2023-08-17T13:37:36;29.90;99.90
12557;DHT22;6344;49.932;8.308;2023-08-17T13:40:03;30.80;99.90
12557;DHT22;6344;49.932;8.308;2023-08-17T13:42:31;31.50;99.90
12557;DHT22;6344;49.932;8.308;2023-08-17T13:44:57;31.50;99.90
12557;DHT22;6344;49.932;8.308;2023-08-17T13:47:24;30.60;99.90
12557;DHT22;6344;49.932;8.308;2023-08-17T13:49:50;31.30;99.90
12557;DHT22;6344;49.932;8.308;2023-08-17T13:52:17;31.70;99.90
12557;DHT22;6344;49.932;8.308;2023-08-17T13:54:43;32.00;99.90
12557;DHT22;6344;49.932;8.308;2023-08-17T13:57:10;31.50;99.90
12557;DHT22;6344;49.932;8.308;2023-08-17T13:59:38;31.50;99.90
12557;DHT22;6344;49.932;8.308;2023-08-17T14:02:05;31.10;99.90
12557;DHT22;6344;49.932;8.308;2023-08-17T14:04:32;32.00;99.90
12557;DHT22;6344;49.932;8.308;2023-08-17T14:06:58;33.70;99.90
12557;DHT22;6344;49.932;8.308;2023-08-17T14:09:25;34.30;99.90
12557;DHT22;6344;49.932;8.308;2023-08-17T14:11:51;36.00;99.90
12557;DHT22;6344;49.932;8.308;2023-08-17T14:14:18;36.50;67.90
12557;DHT22;6344;49.932;8.308;2023-08-17T14:16:45;36.30;57.90
12557;DHT22;6344;49.932;8.308;2023-08-17T14:19:12;36.20;51.90
12557;DHT22;6344;49.932;8.308;2023-08-17T14:21:38;36.00;45.70
12557;DHT22;6344;49.932;8.308;2023-08-17T14:24:05;35.40;39.20
12557;DHT22;6344;49.932;8.308;2023-08-17T14:26:33;34.90;36.50
12557;DHT22;6344;49.932;8.308;2023-08-17T14:29:00;33.90;99.90
12557;DHT22;6344;49.932;8.308;2023-08-17T14:31:26;33.30;99.90
12557;DHT22;6344;49.932;8.308;2023-08-17T14:33:54;32.30;99.90
12557;DHT22;6344;49.932;8.308;2023-08-17T14:36:20;31.90;99.90
12557;DHT22;6344;49.932;8.308;2023-08-17T14:38:47;31.20;99.90
12557;DHT22;6344;49.932;8.308;2023-08-17T14:41:13;30.50;99.90
12557;DHT22;6344;49.932;8.308;2023-08-17T14:43:40;30.10;99.90
12557;DHT22;6344;49.932;8.308;2023-08-17T14:46:06;30.10;99.90
12557;DHT22;6344;49.932;8.308;2023-08-17T14:48:33;30.60;99.90
12557;DHT22;6344;49.932;8.308;2023-08-17T14:51:01;30.80;99.90
12557;DHT22;6344;49.932;8.308;2023-08-17T14:53:27;31.90;99.90
12557;DHT22;6344;49.932;8.308;2023-08-17T14:55:54;32.60;99.90
12557;DHT22;6344;49.932;8.308;2023-08-17T14:58:20;32.80;99.90
12557;DHT22;6344;49.932;8.308;2023-08-17T15:00:47;33.80;99.90
12557;DHT22;6344;49.932;8.308;2023-08-17T15:03:13;34.00;99.90
12557;DHT22;6344;49.932;8.308;2023-08-17T15:05:40;33.20;36.90
12557;DHT22;6344;49.932;8.308;2023-08-17T15:08:08;32.40;32.80
12557;DHT22;6344;49.932;8.308;2023-08-17T15:10:34;33.00;37.10
12557;DHT22;6344;49.932;8.308;2023-08-17T15:13:01;33.80;38.50
12557;DHT22;6344;49.932;8.308;2023-08-17T15:15:27;34.40;99.90
12557;DHT22;6344;49.932;8.308;2023-08-17T15:17:54;34.10;99.90
12557;DHT22;6344;49.932;8.308;2023-08-17T15:20:20;34.10;99.90
12557;DHT22;6344;49.932;8.308;2023-08-17T15:22:47;34.40;99.90
12557;DHT22;6344;49.932;8.308;2023-08-17T15:25:15;34.50;99.90
12557;DHT22;6344;49.932;8.308;2023-08-17T15:27:41;34.40;99.90
12557;DHT22;6344;49.932;8.308;2023-08-17T15:30:08;35.00;99.90
12557;DHT22;6344;49.932;8.308;2023-08-17T15:32:35;35.50;99.90
12557;DHT22;6344;49.932;8.308;2023-08-17T15:35:01;35.40;99.90
12557;DHT22;6344;49.932;8.308;2023-08-17T15:37:28;35.20;99.90
12557;DHT22;6344;49.932;8.308;2023-08-17T15:39:54;34.00;99.90
12557;DHT22;6344;49.932;8.308;2023-08-17T15:42:22;34.60;99.90
12557;DHT22;6344;49.932;8.308;2023-08-17T15:44:49;34.30;99.90
12557;DHT22;6344;49.932;8.308;2023-08-17T15:47:16;34.30;99.90
12557;DHT22;6344;49.932;8.308;2023-08-17T15:58:53;34.60;99.90
12557;DHT22;6344;49.932;8.308;2023-08-17T16:01:21;35.30;99.90
12557;DHT22;6344;49.932;8.308;2023-08-17T16:03:48;35.70;7.60
12557;DHT22;6344;49.932;8.308;2023-08-17T16:06:14;35.40;3.50